sensor_id;sensor_type;location;lat;lon;timestamp;pressure;altitude;pressure_sealevel;temperature;humidity
45467;BME280;31212;49.734;8.490;2023-04-09T00:01:53;101316.91;;;5.28;83.32
45467;BME280;31212;49.734;8.490;2023-04-09T00:04:19;101314.06;;;5.21;82.69
45467;BME280;31212;49.734;8.490;2023-04-09T00:06:47;101313.81;;;5.15;83.03
45467;BME280;31212;49.734;8.490;2023-04-09T00:09:14;101327.09;;;5.26;82.97
45467;BME280;31212;49.734;8.490;2023-04-09T00:11:40;101321.22;;;5.29;83.12
45467;BME280;31212;49.734;8.490;2023-04-09T00:14:07;101310.97;;;5.30;83.06
45467;BME280;31212;49.734;8.490;2023-04-09T00:16:33;101308.69;;;5.38;83.11
45467;BME280;31212;49.734;8.490;2023-04-09T00:19:00;101307.84;;;5.37;82.98
45467;BME280;31212;49.734;8.490;2023-04-09T00:21:27;101306.44;;;5.46;83.05
45467;BME280;31212;49.734;8.490;2023-04-09T00:23:54;101292.78;;;5.48;82.71
45467;BME280;31212;49.734;8.490;2023-04-09T00:26:21;101298.50;;;5.41;82.60
45467;BME280;31212;49.734;8.490;2023-04-09T00:28:47;101303.91;;;5.47;82.70
45467;BME280;31212;49.734;8.490;2023-04-09T00:31:14;101291.09;;;5.49;82.41
45467;BME280;31212;49.734;8.490;2023-04-09T00:33:41;101306.06;;;5.59;83.19
45467;BME280;31212;49.734;8.490;2023-04-09T00:36:07;101298.28;;;5.58;82.92
45467;BME280;31212;49.734;8.490;2023-04-09T00:38:34;101303.50;;;5.59;82.76
45467;BME280;31212;49.734;8.490;2023-04-09T00:41:02;101303.66;;;5.64;82.44
45467;BME280;31212;49.734;8.490;2023-04-09T00:43:28;101304.72;;;5.69;82.73
45467;BME280;31212;49.734;8.490;2023-04-09T00:45:55;101292.53;;;5.65;82.51
45467;BME280;31212;49.734;8.490;2023-04-09T00:48:22;101289.97;;;5.65;82.79
45467;BME280;31212;49.734;8.490;2023-04-09T00:50:48;101294.41;;;5.69;82.51
45467;BME280;31212;49.734;8.490;2023-04-09T00:53:15;101293.72;;;5.73;82.40
45467;BME280;31212;49.734;8.490;2023-04-09T00:55:42;101286.94;;;5.75;82.21
45467;BME280;31212;49.734;8.490;2023-04-09T00:58:11;101283.19;;;5.67;82.39
45467;BME280;31212;49.734;8.490;2023-04-09T01:00:38;101287.44;;;5.66;82.30
45467;BME280;31212;49.734;8.490;2023-04-09T01:03:05;101299.09;;;5.79;82.26
45467;BME280;31212;49.734;8.490;2023-04-09T01:05:38;101284.69;;;5.84;82.42
45467;BME280;31212;49.734;8.490;2023-04-09T01:08:11;101292.22;;;5.80;82.26
45467;BME280;31212;49.734;8.490;2023-04-09T01:10:42;101293.94;;;5.79;82.56
45467;BME280;31212;49.734;8.490;2023-04-09T01:13:17;101289.75;;;5.83;82.33
45467;BME280;31212;49.734;8.490;2023-04-09T01:15:47;101293.19;;;5.82;82.71
45467;BME280;31212;49.734;8.490;2023-04-09T01:18:21;101299.84;;;5.77;82.96
45467;BME280;31212;49.734;8.490;2023-04-09T01:20:55;101301.31;;;5.70;83.20
45467;BME280;31212;49.734;8.490;2023-04-09T01:23:30;101317.59;;;5.69;83.48
45467;BME280;31212;49.734;8.490;2023-04-09T01:26:03;101327.75;;;5.64;84.24
45467;BME280;31212;49.734;8.490;2023-04-09T01:28:53;101327.66;;;5.63;84.31
45467;BME280;31212;49.734;8.490;2023-04-09T01:31:26;101339.91;;;5.68;84.36
45467;BME280;31212;49.734;8.490;2023-04-09T01:33:53;101350.94;;;5.64;84.88
45467;BME280;31212;49.734;8.490;2023-04-09T01:36:21;101351.75;;;5.63;85.38
45467;BME280;31212;49.734;8.490;2023-04-09T01:38:50;101359.16;;;5.55;85.28
45467;BME280;31212;49.734;8.490;2023-04-09T01:41:18;101369.25;;;5.49;86.13
45467;BME280;31212;49.734;8.490;2023-04-09T01:43:47;101371.69;;;5.46;86.36
45467;BME280;31212;49.734;8.490;2023-04-09T01:46:16;101374.84;;;5.39;86.92
45467;BME280;31212;49.734;8.490;2023-04-09T01:48:43;101373.38;;;5.46;86.45
45467;BME280;31212;49.734;8.490;2023-04-09T01:51:11;101368.19;;;5.44;86.45
45467;BME280;31212;49.734;8.490;2023-04-09T01:53:38;101370.44;;;5.36;86.69
45467;BME280;31212;49.734;8.490;2023-04-09T01:56:05;101370.44;;;5.36;86.44
45467;BME280;31212;49.734;8.490;2023-04-09T01:58:32;101361.91;;;5.37;86.69
45467;BME280;31212;49.734;8.490;2023-04-09T02:01:04;101358.75;;;5.45;86.79
45467;BME280;31212;49.734;8.490;2023-04-09T02:03:34;101358.69;;;5.43;86.02
45467;BME280;31212;49.734;8.490;2023-04-09T02:06:08;101362.28;;;5.47;86.57
45467;BME280;31212;49.734;8.490;2023-04-09T02:08:42;101359.56;;;5.44;86.44
45467;BME280;31212;49.734;8.490;2023-04-09T02:11:10;101361.00;;;5.37;86.46
45467;BME280;31212;49.734;8.490;2023-04-09T02:13:39;101361.09;;;5.38;86.44
45467;BME280;31212;49.734;8.490;2023-04-09T02:16:06;101371.47;;;5.19;86.95
45467;BME280;31212;49.734;8.490;2023-04-09T02:18:35;101372.09;;;5.13;87.26
45467;BME280;31212;49.734;8.490;2023-04-09T02:21:02;101373.84;;;5.14;87.77
45467;BME280;31212;49.734;8.490;2023-04-09T02:23:29;101377.78;;;5.06;87.40
45467;BME280;31212;49.734;8.490;2023-04-09T02:25:57;101376.00;;;5.03;nan
45467;BME280;31212;49.734;8.490;2023-04-09T02:28:24;101375.78;;;4.99;87.59
45467;BME280;31212;49.734;8.490;2023-04-09T02:30:51;101372.13;;;4.94;87.44
45467;BME280;31212;49.734;8.490;2023-04-09T02:33:17;101366.59;;;4.84;87.45
45467;BME280;31212;49.734;8.490;2023-04-09T02:35:45;101371.22;;;4.72;87.52
45467;BME280;31212;49.734;8.490;2023-04-09T02:38:11;101371.06;;;4.67;87.68
45467;BME280;31212;49.734;8.490;2023-04-09T02:40:40;101372.53;;;4.62;87.96
45467;BME280;31212;49.734;8.490;2023-04-09T02:43:07;101372.03;;;4.50;88.05
45467;BME280;31212;49.734;8.490;2023-04-09T02:45:34;101374.66;;;4.51;88.11
45467;BME280;31212;49.734;8.490;2023-04-09T02:48:01;101368.03;;;4.37;88.20
45467;BME280;31212;49.734;8.490;2023-04-09T02:50:32;101370.28;;;4.29;88.81
45467;BME280;31212;49.734;8.490;2023-04-09T02:52:59;101378.66;;;4.25;88.99
45467;BME280;31212;49.734;8.490;2023-04-09T02:55:26;101372.22;;;4.15;88.92
45467;BME280;31212;49.734;8.490;2023-04-09T02:57:53;101372.03;;;4.11;89.04
45467;BME280;31212;49.734;8.490;2023-04-09T03:00:20;101373.56;;;4.07;89.29
45467;BME280;31212;49.734;8.490;2023-04-09T03:05:39;101371.91;;;3.90;89.25
45467;BME280;31212;49.734;8.490;2023-04-09T03:08:07;101376.00;;;3.86;89.91
45467;BME280;31212;49.734;8.490;2023-04-09T03:10:34;101372.31;;;3.79;90.16
45467;BME280;31212;49.734;8.490;2023-04-09T03:13:00;101372.81;;;3.72;89.98
45467;BME280;31212;49.734;8.490;2023-04-09T03:15:27;101374.09;;;3.62;90.68
45467;BME280;31212;49.734;8.490;2023-04-09T03:17:53;101380.94;;;3.62;90.80
45467;BME280;31212;49.734;8.490;2023-04-09T03:20:20;101377.38;;;3.60;91.10
45467;BME280;31212;49.734;8.490;2023-04-09T03:22:46;101380.31;;;3.49;90.99
45467;BME280;31212;49.734;8.490;2023-04-09T03:25:26;101375.78;;;3.44;91.20
45467;BME280;31212;49.734;8.490;2023-04-09T03:27:53;101386.94;;;3.44;91.82
45467;BME280;31212;49.734;8.490;2023-04-09T03:30:30;101376.31;;;3.36;91.78
45467;BME280;31212;49.734;8.490;2023-04-09T03:33:00;101385.66;;;3.36;92.10
45467;BME280;31212;49.734;8.490;2023-04-09T03:35:28;101382.09;;;3.32;92.11
45467;BME280;31212;49.734;8.490;2023-04-09T03:37:57;101381.91;;;3.29;92.23
45467;BME280;31212;49.734;8.490;2023-04-09T03:40:25;101382.69;;;3.27;92.73
45467;BME280;31212;49.734;8.490;2023-04-09T03:42:55;101378.03;;;3.19;92.65
45467;BME280;31212;49.734;8.490;2023-04-09T03:45:21;101376.38;;;3.20;92.74
45467;BME280;31212;49.734;8.490;2023-04-09T03:47:50;101380.59;;;3.19;92.99
45467;BME280;31212;49.734;8.490;2023-04-09T03:50:21;101377.91;;;3.16;93.43
45467;BME280;31212;49.734;8.490;2023-04-09T03:52:53;101369.88;;;3.10;93.00
45467;BME280;31212;49.734;8.490;2023-04-09T03:55:21;101379.13;;;3.07;93.81
45467;BME280;31212;49.734;8.490;2023-04-09T03:57:50;101374.56;;;3.01;93.66
45467;BME280;31212;49.734;8.490;2023-04-09T04:00:19;101377.13;;;3.01;93.69
45467;BME280;31212;49.734;8.490;2023-04-09T04:02:49;101378.75;;;2.99;93.96
45467;BME280;31212;49.734;8.490;2023-04-09T04:05:22;101377.50;;;2.91;93.77
45467;BME280;31212;49.734;8.490;2023-04-09T04:07:49;101378.28;;;2.90;93.85
45467;BME280;31212;49.734;8.490;2023-04-09T04:10:23;101382.47;;;2.88;94.47
45467;BME280;31212;49.734;8.490;2023-04-09T04:12:51;101380.06;;;2.91;94.33
45467;BME280;31212;49.734;8.490;2023-04-09T04:15:28;101384.22;;;2.89;94.64
45467;BME280;31212;49.734;8.490;2023-04-09T04:17:55;101387.28;;;2.81;94.66
45467;BME280;31212;49.734;8.490;2023-04-09T04:20:42;101387.38;;;2.83;94.62
45467;BME280;31212;49.734;8.490;2023-04-09T04:23:11;101388.09;;;2.80;95.04
45467;BME280;31212;49.734;8.490;2023-04-09T04:25:50;101386.56;;;2.84;95.05
45467;BME280;31212;49.734;8.490;2023-04-09T04:28:24;101394.34;;;2.85;95.24
45467;BME280;31212;49.734;8.490;2023-04-09T04:30:51;101390.06;;;2.86;94.72
45467;BME280;31212;49.734;8.490;2023-04-09T04:33:18;101397.88;;;2.88;94.94
45467;BME280;31212;49.734;8.490;2023-04-09T04:35:50;101391.56;;;2.99;94.98
45467;BME280;31212;49.734;8.490;2023-04-09T04:38:34;101392.69;;;3.04;94.58
45467;BME280;31212;49.734;8.490;2023-04-09T04:41:05;101389.41;;;3.07;94.56
45467;BME280;31212;49.734;8.490;2023-04-09T04:43:37;101391.97;;;3.07;94.34
45467;BME280;31212;49.734;8.490;2023-04-09T04:46:06;101391.38;;;3.12;94.35
45467;BME280;31212;49.734;8.490;2023-04-09T04:48:33;101387.69;;;3.07;94.30
45467;BME280;31212;49.734;8.490;2023-04-09T04:51:00;101388.44;;;3.05;94.37
45467;BME280;31212;49.734;8.490;2023-04-09T04:53:35;101390.59;;;2.97;94.56
45467;BME280;31212;49.734;8.490;2023-04-09T04:56:11;101393.28;;;2.98;94.46
45467;BME280;31212;49.734;8.490;2023-04-09T04:58:46;101391.25;;;3.09;94.44
45467;BME280;31212;49.734;8.490;2023-04-09T05:01:15;101384.09;;;3.03;94.43
45467;BME280;31212;49.734;8.490;2023-04-09T05:03:42;101390.06;;;3.02;94.15
45467;BME280;31212;49.734;8.490;2023-04-09T05:06:23;101388.16;;;2.98;94.35
45467;BME280;31212;49.734;8.490;2023-04-09T05:08:51;101398.63;;;3.03;94.23
45467;BME280;31212;49.734;8.490;2023-04-09T05:11:18;101399.81;;;3.10;93.79
45467;BME280;31212;49.734;8.490;2023-04-09T05:13:48;101394.09;;;3.15;94.07
45467;BME280;31212;49.734;8.490;2023-04-09T05:16:16;101393.63;;;3.06;93.87
45467;BME280;31212;49.734;8.490;2023-04-09T05:18:46;101391.13;;;3.08;93.55
45467;BME280;31212;49.734;8.490;2023-04-09T05:21:12;101393.88;;;3.11;93.99
45467;BME280;31212;49.734;8.490;2023-04-09T05:23:43;101388.56;;;3.08;93.76
45467;BME280;31212;49.734;8.490;2023-04-09T05:26:09;101389.63;;;3.11;93.62
45467;BME280;31212;49.734;8.490;2023-04-09T05:28:51;101389.69;;;3.13;93.54
45467;BME280;31212;49.734;8.490;2023-04-09T05:31:20;101385.59;;;3.16;93.29
45467;BME280;31212;49.734;8.490;2023-04-09T05:34:10;101387.88;;;3.28;93.06
45467;BME280;31212;49.734;8.490;2023-04-09T05:36:41;101394.66;;;3.44;92.93
45467;BME280;31212;49.734;8.490;2023-04-09T05:39:08;101388.41;;;3.39;92.50
45467;BME280;31212;49.734;8.490;2023-04-09T05:41:35;101387.34;;;3.53;92.21
45467;BME280;31212;49.734;8.490;2023-04-09T05:44:36;101381.78;;;3.62;91.88
45467;BME280;31212;49.734;8.490;2023-04-09T05:47:12;101369.31;;;3.70;91.69
45467;BME280;31212;49.734;8.490;2023-04-09T05:49:44;101375.09;;;3.84;91.37
45467;BME280;31212;49.734;8.490;2023-04-09T05:52:13;101362.84;;;3.78;90.80
45467;BME280;31212;49.734;8.490;2023-04-09T05:54:41;101353.63;;;4.01;90.69
45467;BME280;31212;49.734;8.490;2023-04-09T05:57:09;101343.88;;;4.14;89.90
45467;BME280;31212;49.734;8.490;2023-04-09T05:59:40;101338.66;;;4.32;89.41
45467;BME280;31212;49.734;8.490;2023-04-09T06:02:07;101334.13;;;4.46;89.05
45467;BME280;31212;49.734;8.490;2023-04-09T06:04:33;101334.94;;;4.64;88.15
45467;BME280;31212;49.734;8.490;2023-04-09T06:07:01;101321.00;;;5.01;87.69
45467;BME280;31212;49.734;8.490;2023-04-09T06:09:27;101295.19;;;5.21;86.29
45467;BME280;31212;49.734;8.490;2023-04-09T06:11:54;101269.06;;;5.34;85.32
45467;BME280;31212;49.734;8.490;2023-04-09T06:14:21;101270.78;;;5.56;84.65
45467;BME280;31212;49.734;8.490;2023-04-09T06:16:49;101246.94;;;5.62;83.41
45467;BME280;31212;49.734;8.490;2023-04-09T06:19:16;101230.81;;;5.92;83.32
45467;BME280;31212;49.734;8.490;2023-04-09T06:21:42;101215.72;;;6.27;82.20
45467;BME280;31212;49.734;8.490;2023-04-09T06:24:09;101179.72;;;6.56;80.89
45467;BME280;31212;49.734;8.490;2023-04-09T06:26:35;101149.31;;;6.74;79.80
45467;BME280;31212;49.734;8.490;2023-04-09T06:29:02;101119.38;;;6.80;78.44
45467;BME280;31212;49.734;8.490;2023-04-09T06:31:28;101118.31;;;6.73;78.56
45467;BME280;31212;49.734;8.490;2023-04-09T06:33:56;101126.97;;;6.75;78.70
45467;BME280;31212;49.734;8.490;2023-04-09T06:36:23;101126.03;;;7.32;77.96
45467;BME280;31212;49.734;8.490;2023-04-09T06:38:50;101104.38;;;7.59;77.24
45467;BME280;31212;49.734;8.490;2023-04-09T06:41:19;101071.22;;;8.11;76.62
45467;BME280;31212;49.734;8.490;2023-04-09T06:43:46;100993.78;;;7.81;74.42
45467;BME280;31212;49.734;8.490;2023-04-09T06:46:12;100999.91;;;8.22;74.12
45467;BME280;31212;49.734;8.490;2023-04-09T06:48:42;101020.38;;;8.92;74.18
45467;BME280;31212;49.734;8.490;2023-04-09T06:51:10;100967.56;;;9.32;72.13
45467;BME280;31212;49.734;8.490;2023-04-09T06:53:37;100938.94;;;9.79;70.65
45467;BME280;31212;49.734;8.490;2023-04-09T06:56:04;100851.06;;;10.01;69.00
45467;BME280;31212;49.734;8.490;2023-04-09T06:58:31;100818.91;;;10.65;67.20
45467;BME280;31212;49.734;8.490;2023-04-09T07:00:58;100769.94;;;11.13;65.51
45467;BME280;31212;49.734;8.490;2023-04-09T07:03:25;100715.78;;;12.13;63.63
45467;BME280;31212;49.734;8.490;2023-04-09T07:05:52;100614.97;;;13.03;60.48
45467;BME280;31212;49.734;8.490;2023-04-09T07:08:19;100571.13;;;13.81;58.53
45467;BME280;31212;49.734;8.490;2023-04-09T07:10:47;100556.53;;;15.26;56.42
45467;BME280;31212;49.734;8.490;2023-04-09T07:13:14;100437.75;;;16.37;52.51
45467;BME280;31212;49.734;8.490;2023-04-09T07:15:40;100369.34;;;16.91;50.46
45467;BME280;31212;49.734;8.490;2023-04-09T07:18:07;100297.91;;;17.16;48.90
45467;BME280;31212;49.734;8.490;2023-04-09T07:20:33;100311.91;;;15.07;50.54
45467;BME280;31212;49.734;8.490;2023-04-09T07:23:00;100495.56;;;16.73;51.31
45467;BME280;31212;49.734;8.490;2023-04-09T07:25:28;100260.63;;;18.27;46.37
45467;BME280;31212;49.734;8.490;2023-04-09T07:27:54;100288.34;;;15.55;49.56
45467;BME280;31212;49.734;8.490;2023-04-09T07:30:21;100241.97;;;15.20;49.03
45467;BME280;31212;49.734;8.490;2023-04-09T07:32:47;100357.75;;;15.28;50.13
45467;BME280;31212;49.734;8.490;2023-04-09T07:35:14;100403.41;;;14.41;51.58
45467;BME280;31212;49.734;8.490;2023-04-09T07:37:40;100450.16;;;14.66;51.65
45467;BME280;31212;49.734;8.490;2023-04-09T07:40:07;100439.28;;;16.05;49.98
45467;BME280;31212;49.734;8.490;2023-04-09T07:42:37;100373.41;;;16.23;48.81
45467;BME280;31212;49.734;8.490;2023-04-09T07:45:04;100372.44;;;16.27;49.12
45467;BME280;31212;49.734;8.490;2023-04-09T07:47:31;100403.72;;;17.15;48.17
45467;BME280;31212;49.734;8.490;2023-04-09T07:49:58;100315.41;;;17.15;46.96
45467;BME280;31212;49.734;8.490;2023-04-09T07:52:24;100328.25;;;17.59;46.92
45467;BME280;31212;49.734;8.490;2023-04-09T07:54:51;100292.22;;;16.98;47.04
45467;BME280;31212;49.734;8.490;2023-04-09T07:57:17;100275.00;;;18.45;44.85
45467;BME280;31212;49.734;8.490;2023-04-09T07:59:45;100234.88;;;18.94;44.07
45467;BME280;31212;49.734;8.490;2023-04-09T08:02:12;100150.81;;;18.64;43.15
45467;BME280;31212;49.734;8.490;2023-04-09T08:04:39;100223.44;;;17.83;44.47
45467;BME280;31212;49.734;8.490;2023-04-09T08:07:05;100205.03;;;18.41;43.51
45467;BME280;31212;49.734;8.490;2023-04-09T08:09:32;100160.19;;;18.98;42.50
45467;BME280;31212;49.734;8.490;2023-04-09T08:11:59;100247.09;;;19.20;43.31
45467;BME280;31212;49.734;8.490;2023-04-09T08:14:25;100195.69;;;19.82;41.91
45467;BME280;31212;49.734;8.490;2023-04-09T08:16:53;100084.47;;;19.52;40.89
45467;BME280;31212;49.734;8.490;2023-04-09T08:19:20;100150.31;;;19.28;41.68
45467;BME280;31212;49.734;8.490;2023-04-09T08:21:47;100229.72;;;17.77;44.44
45467;BME280;31212;49.734;8.490;2023-04-09T08:24:14;100180.13;;;18.78;42.52
45467;BME280;31212;49.734;8.490;2023-04-09T08:26:41;100163.94;;;18.91;42.18
45467;BME280;31212;49.734;8.490;2023-04-09T08:29:09;100114.50;;;17.68;42.47
45467;BME280;31212;49.734;8.490;2023-04-09T08:31:35;100253.41;;;18.06;43.67
45467;BME280;31212;49.734;8.490;2023-04-09T08:34:04;100172.00;;;19.11;41.61
45467;BME280;31212;49.734;8.490;2023-04-09T08:36:30;100198.94;;;19.89;41.00
45467;BME280;31212;49.734;8.490;2023-04-09T08:38:59;100045.09;;;19.71;39.18
45467;BME280;31212;49.734;8.490;2023-04-09T08:41:26;100099.91;;;19.61;39.92
45467;BME280;31212;49.734;8.490;2023-04-09T08:43:55;100078.53;;;20.55;38.44
45467;BME280;31212;49.734;8.490;2023-04-09T08:46:22;100023.00;;;21.36;37.11
45467;BME280;31212;49.734;8.490;2023-04-09T08:48:50;99952.47;;;22.25;35.23
45467;BME280;31212;49.734;8.490;2023-04-09T08:51:20;99962.78;;;23.29;34.32
45467;BME280;31212;49.734;8.490;2023-04-09T08:53:48;99918.88;;;22.45;34.72
45467;BME280;31212;49.734;8.490;2023-04-09T08:56:17;100005.81;;;21.63;36.65
45467;BME280;31212;49.734;8.490;2023-04-09T08:58:45;99984.44;;;23.51;34.29
45467;BME280;31212;49.734;8.490;2023-04-09T09:01:20;99902.16;;;24.84;31.99
45467;BME280;31212;49.734;8.490;2023-04-09T09:03:57;100032.72;;;22.59;35.61
45467;BME280;31212;49.734;8.490;2023-04-09T09:06:26;100066.69;;;20.24;38.09
45467;BME280;31212;49.734;8.490;2023-04-09T09:09:05;100074.38;;;23.05;35.12
45467;BME280;31212;49.734;8.490;2023-04-09T09:11:33;99984.22;;;21.36;35.93
45467;BME280;31212;49.734;8.490;2023-04-09T09:14:01;100009.19;;;21.84;35.38
45467;BME280;31212;49.734;8.490;2023-04-09T09:16:28;100201.75;;;21.33;38.11
45467;BME280;31212;49.734;8.490;2023-04-09T09:18:55;100029.47;;;23.67;34.02
45467;BME280;31212;49.734;8.490;2023-04-09T09:21:22;99991.91;;;23.29;33.83
45467;BME280;31212;49.734;8.490;2023-04-09T09:23:50;99950.63;;;23.41;33.19
45467;BME280;31212;49.734;8.490;2023-04-09T09:26:17;99908.94;;;23.12;33.13
45467;BME280;31212;49.734;8.490;2023-04-09T09:28:45;99895.38;;;21.72;34.47
45467;BME280;31212;49.734;8.490;2023-04-09T09:31:13;100013.66;;;20.90;36.19
45467;BME280;31212;49.734;8.490;2023-04-09T09:33:40;99984.00;;;20.85;35.73
45467;BME280;31212;49.734;8.490;2023-04-09T09:36:07;100004.72;;;18.57;38.46
45467;BME280;31212;49.734;8.490;2023-04-09T09:38:34;100167.66;;;17.45;41.33
45467;BME280;31212;49.734;8.490;2023-04-09T09:41:18;100273.94;;;18.23;41.69
45467;BME280;31212;49.734;8.490;2023-04-09T09:43:45;100246.22;;;18.67;40.73
45467;BME280;31212;49.734;8.490;2023-04-09T09:46:11;100134.09;;;18.66;39.23
45467;BME280;31212;49.734;8.490;2023-04-09T09:48:38;100241.47;;;18.52;40.76
45467;BME280;31212;49.734;8.490;2023-04-09T09:51:08;100229.69;;;18.09;40.97
45467;BME280;31212;49.734;8.490;2023-04-09T09:53:35;100329.66;;;15.38;45.63
45467;BME280;31212;49.734;8.490;2023-04-09T09:56:03;100389.66;;;14.94;46.58
45467;BME280;31212;49.734;8.490;2023-04-09T09:58:36;100392.03;;;16.09;45.06
45467;BME280;31212;49.734;8.490;2023-04-09T10:01:06;100401.19;;;14.80;46.50
45467;BME280;31212;49.734;8.490;2023-04-09T10:03:34;100463.56;;;14.37;48.12
45467;BME280;31212;49.734;8.490;2023-04-09T10:06:02;100521.66;;;13.69;49.54
45467;BME280;31212;49.734;8.490;2023-04-09T10:08:29;100548.41;;;13.95;49.32
45467;BME280;31212;49.734;8.490;2023-04-09T10:10:57;100622.22;;;14.10;50.46
45467;BME280;31212;49.734;8.490;2023-04-09T10:13:29;100603.28;;;13.83;50.59
45467;BME280;31212;49.734;8.490;2023-04-09T10:15:58;100600.06;;;13.44;50.70
45467;BME280;31212;49.734;8.490;2023-04-09T10:18:25;100638.22;;;13.63;51.18
45467;BME280;31212;49.734;8.490;2023-04-09T10:20:56;100665.03;;;13.84;50.98
45467;BME280;31212;49.734;8.490;2023-04-09T10:23:31;100633.22;;;14.47;50.14
45467;BME280;31212;49.734;8.490;2023-04-09T10:25:58;100579.31;;;13.13;50.81
45467;BME280;31212;49.734;8.490;2023-04-09T10:28:25;100659.06;;;13.65;51.20
45467;BME280;31212;49.734;8.490;2023-04-09T10:30:52;100638.50;;;14.43;49.95
45467;BME280;31212;49.734;8.490;2023-04-09T10:33:22;100612.50;;;15.11;49.00
45467;BME280;31212;49.734;8.490;2023-04-09T10:35:51;100575.84;;;15.18;48.26
45467;BME280;31212;49.734;8.490;2023-04-09T10:38:32;100546.75;;;15.41;47.95
45467;BME280;31212;49.734;8.490;2023-04-09T10:40:58;100540.00;;;15.84;47.22
45467;BME280;31212;49.734;8.490;2023-04-09T10:43:31;100479.91;;;16.26;46.17
45467;BME280;31212;49.734;8.490;2023-04-09T10:45:59;100454.03;;;15.57;46.37
45467;BME280;31212;49.734;8.490;2023-04-09T10:48:31;100437.13;;;16.25;45.42
45467;BME280;31212;49.734;8.490;2023-04-09T10:50:58;100406.91;;;16.51;45.26
45467;BME280;31212;49.734;8.490;2023-04-09T10:53:25;100360.91;;;15.47;45.87
45467;BME280;31212;49.734;8.490;2023-04-09T10:55:52;100515.25;;;14.83;48.28
45467;BME280;31212;49.734;8.490;2023-04-09T10:58:19;100478.19;;;14.50;48.41
45467;BME280;31212;49.734;8.490;2023-04-09T11:00:47;100473.03;;;14.45;48.06
45467;BME280;31212;49.734;8.490;2023-04-09T11:03:22;100526.38;;;15.01;48.41
45467;BME280;31212;49.734;8.490;2023-04-09T11:05:52;100594.53;;;15.54;48.47
45467;BME280;31212;49.734;8.490;2023-04-09T11:08:19;100466.44;;;15.97;46.23
45467;BME280;31212;49.734;8.490;2023-04-09T11:10:47;100487.69;;;16.29;46.41
45467;BME280;31212;49.734;8.490;2023-04-09T11:13:15;100419.91;;;16.13;45.53
45467;BME280;31212;49.734;8.490;2023-04-09T11:15:42;100534.72;;;17.23;45.90
45467;BME280;31212;49.734;8.490;2023-04-09T11:18:13;100249.06;;;16.76;42.93
45467;BME280;31212;49.734;8.490;2023-04-09T11:20:39;100318.09;;;17.47;42.85
45467;BME280;31212;49.734;8.490;2023-04-09T11:23:07;100282.59;;;18.81;41.13
45467;BME280;31212;49.734;8.490;2023-04-09T11:25:35;100221.75;;;18.39;40.98
45467;BME280;31212;49.734;8.490;2023-04-09T11:28:03;100236.22;;;18.52;40.88
45467;BME280;31212;49.734;8.490;2023-04-09T11:30:30;100223.88;;;17.68;41.70
45467;BME280;31212;49.734;8.490;2023-04-09T11:32:58;100247.81;;;17.57;42.29
45467;BME280;31212;49.734;8.490;2023-04-09T11:35:25;100334.06;;;17.03;43.65
45467;BME280;31212;49.734;8.490;2023-04-09T11:37:51;100252.25;;;18.16;41.48
45467;BME280;31212;49.734;8.490;2023-04-09T11:40:21;100227.16;;;18.06;41.20
45467;BME280;31212;49.734;8.490;2023-04-09T11:42:48;100194.31;;;17.61;41.38
45467;BME280;31212;49.734;8.490;2023-04-09T11:45:15;100211.91;;;17.59;41.62
45467;BME280;31212;49.734;8.490;2023-04-09T11:47:43;100217.78;;;17.37;41.99
45467;BME280;31212;49.734;8.490;2023-04-09T11:50:12;100169.63;;;16.38;42.11
45467;BME280;31212;49.734;8.490;2023-04-09T11:52:38;100288.69;;;16.63;43.60
45467;BME280;31212;49.734;8.490;2023-04-09T11:55:06;100319.09;;;17.08;43.41
45467;BME280;31212;49.734;8.490;2023-04-09T11:57:42;100202.03;;;17.37;41.10
45467;BME280;31212;49.734;8.490;2023-04-09T12:00:10;100144.56;;;15.91;42.06
45467;BME280;31212;49.734;8.490;2023-04-09T12:02:41;100192.38;;;16.36;42.58
45467;BME280;31212;49.734;8.490;2023-04-09T12:05:09;100097.75;;;16.81;40.40
45467;BME280;31212;49.734;8.490;2023-04-09T12:07:37;100069.47;;;16.28;40.56
45467;BME280;31212;49.734;8.490;2023-04-09T12:10:05;100153.44;;;15.84;42.24
45467;BME280;31212;49.734;8.490;2023-04-09T12:12:40;100225.28;;;16.10;42.73
45467;BME280;31212;49.734;8.490;2023-04-09T12:15:24;100082.75;;;16.86;39.87
45467;BME280;31212;49.734;8.490;2023-04-09T12:17:53;100066.75;;;17.27;39.39
45467;BME280;31212;49.734;8.490;2023-04-09T12:20:31;99997.34;;;16.14;39.64
45467;BME280;31212;49.734;8.490;2023-04-09T12:22:59;100099.34;;;15.44;41.80
45467;BME280;31212;49.734;8.490;2023-04-09T12:25:28;100088.56;;;16.33;40.40
45467;BME280;31212;49.734;8.490;2023-04-09T12:27:56;100023.63;;;16.44;39.57
45467;BME280;31212;49.734;8.490;2023-04-09T12:30:23;100047.22;;;15.74;40.88
45467;BME280;31212;49.734;8.490;2023-04-09T12:32:50;100045.28;;;14.58;42.19
45467;BME280;31212;49.734;8.490;2023-04-09T12:35:17;100133.56;;;14.39;43.73
45467;BME280;31212;49.734;8.490;2023-04-09T12:37:44;100185.38;;;14.66;43.75
45467;BME280;31212;49.734;8.490;2023-04-09T12:40:11;100140.78;;;14.76;43.06
45467;BME280;31212;49.734;8.490;2023-04-09T12:42:38;100147.28;;;13.99;44.25
45467;BME280;31212;49.734;8.490;2023-04-09T12:45:08;100303.88;;;14.61;45.54
45467;BME280;31212;49.734;8.490;2023-04-09T12:47:35;100272.03;;;15.88;43.62
45467;BME280;31212;49.734;8.490;2023-04-09T12:50:04;100144.31;;;16.01;41.65
45467;BME280;31212;49.734;8.490;2023-04-09T12:52:31;100106.34;;;16.20;40.70
45467;BME280;31212;49.734;8.490;2023-04-09T12:54:58;100131.38;;;16.32;41.22
45467;BME280;31212;49.734;8.490;2023-04-09T12:57:25;100033.25;;;16.44;39.65
45467;BME280;31212;49.734;8.490;2023-04-09T12:59:52;100002.66;;;16.76;39.16
45467;BME280;31212;49.734;8.490;2023-04-09T13:02:20;99839.28;;;16.47;37.01
45467;BME280;31212;49.734;8.490;2023-04-09T13:04:46;99838.72;;;16.06;37.55
45467;BME280;31212;49.734;8.490;2023-04-09T13:07:14;99827.41;;;16.63;36.66